Time;durP1;ratioP1;P1;durP2;ratioP2;P2;SDS_P1;SDS_P2;PMS_P1;PMS_P2;Temp;Humidity;BMP_temperature;BMP_pressure;BME280_temperature;BME280_humidity;BME280_pressure;Samples;Min_cycle;Max_cycle;Signal;HPM_P1;HPM_P2
2023/03/09 00:00:29;;;;;;;21.98;11.63;;;;;;;;;;5157501;27;20061;-60
2023/03/09 00:02:55;;;;;;;14.75;9.13;;;;;;;;;;5153296;27;20047;-60
2023/03/09 00:05:21;;;;;;;18.40;10.38;;;;;;;;;;5157188;27;20488;-59
2023/03/09 00:07:48;;;;;;;21.70;11.25;;;;;;;;;;5154410;27;20534;-59
2023/03/09 00:10:15;;;;;;;18.65;10.43;;;;;;;;;;5158722;27;20426;-60
2023/03/09 00:12:41;;;;;;;18.70;10.50;;;;;;;;;;5150715;27;20057;-59
2023/03/09 00:15:09;;;;;;;17.90;10.52;;;;;;;;;;5151298;27;20057;-60
2023/03/09 00:17:36;;;;;;;20.40;11.15;;;;;;;;;;5152270;27;20094;-59
2023/03/09 00:20:18;;;;;;;20.08;10.77;;;;;;;;;;5157070;27;20072;-59
2023/03/09 00:22:49;;;;;;;19.90;10.48;;;;;;;;;;5159087;27;20130;-59
2023/03/09 00:25:16;;;;;;;18.55;11.32;;;;;;;;;;5151661;27;20112;-60
2023/03/09 00:27:45;;;;;;;18.20;10.50;;;;;;;;;;5150523;27;20047;-59
2023/03/09 00:30:13;;;;;;;19.25;10.80;;;;;;;;;;5145340;27;20146;-57
2023/03/09 00:32:39;;;;;;;20.23;10.98;;;;;;;;;;5156645;27;20061;-60
2023/03/09 00:35:08;;;;;;;21.63;11.27;;;;;;;;;;5151050;27;20153;-58
2023/03/09 00:37:37;;;;;;;19.40;11.00;;;;;;;;;;5149131;27;20051;-60
2023/03/09 00:40:06;;;;;;;19.40;11.23;;;;;;;;;;5144864;27;20055;-57
2023/03/09 00:42:32;;;;;;;20.98;11.13;;;;;;;;;;5159816;27;20047;-60
2023/03/09 00:45:00;;;;;;;19.70;11.10;;;;;;;;;;5155186;27;20046;-60
2023/03/09 00:47:27;;;;;;;20.27;11.15;;;;;;;;;;5156169;27;20075;-60
2023/03/09 00:49:53;;;;;;;18.98;10.15;;;;;;;;;;5148849;27;20552;-60
2023/03/09 00:52:20;;;;;;;21.63;11.95;;;;;;;;;;5161440;27;20516;-59
2023/03/09 00:54:46;;;;;;;20.05;12.40;;;;;;;;;;5150706;27;20552;-60
2023/03/09 00:57:12;;;;;;;19.80;11.00;;;;;;;;;;5148886;27;20587;-59
2023/03/09 00:59:42;;;;;;;18.13;10.88;;;;;;;;;;5161875;27;20177;-59
2023/03/09 01:02:09;;;;;;;19.27;10.18;;;;;;;;;;5159835;27;20071;-59
2023/03/09 01:04:35;;;;;;;21.77;10.38;;;;;;;;;;5163160;27;20103;-60
2023/03/09 01:07:02;;;;;;;18.20;10.68;;;;;;;;;;5148885;27;20084;-60
2023/03/09 01:09:28;;;;;;;18.55;10.90;;;;;;;;;;5159058;27;20055;-60
2023/03/09 01:11:55;;;;;;;19.60;10.45;;;;;;;;;;5159414;27;20424;-60
2023/03/09 01:14:21;;;;;;;13.85;9.27;;;;;;;;;;5156268;27;20055;-59
2023/03/09 01:16:47;;;;;;;15.48;9.52;;;;;;;;;;5144803;27;20191;-59
2023/03/09 01:19:14;;;;;;;23.38;10.73;;;;;;;;;;5155436;27;20150;-60
2023/03/09 01:21:40;;;;;;;19.90;11.75;;;;;;;;;;5163121;27;20051;-59
2023/03/09 01:24:06;;;;;;;14.93;9.65;;;;;;;;;;5155159;27;20582;-60
2023/03/09 01:26:33;;;;;;;17.02;9.43;;;;;;;;;;5145465;27;20055;-59
2023/03/09 01:29:01;;;;;;;17.70;10.88;;;;;;;;;;5146180;27;20178;-59
2023/03/09 01:31:28;;;;;;;15.20;8.90;;;;;;;;;;5163038;27;20508;-59
2023/03/09 01:33:54;;;;;;;16.20;10.15;;;;;;;;;;5146525;27;20061;-60
2023/03/09 01:36:21;;;;;;;17.30;10.73;;;;;;;;;;5161689;27;20501;-59
2023/03/09 01:38:48;;;;;;;16.08;9.55;;;;;;;;;;5151720;27;20047;-60
2023/03/09 01:41:16;;;;;;;21.00;10.27;;;;;;;;;;5142240;27;20051;-59
2023/03/09 01:43:43;;;;;;;16.80;10.45;;;;;;;;;;5160399;27;20142;-60
2023/03/09 01:46:13;;;;;;;17.58;11.15;;;;;;;;;;5159379;27;20512;-60
2023/03/09 01:48:39;;;;;;;17.88;10.57;;;;;;;;;;5150652;27;20055;-60
2023/03/09 01:51:05;;;;;;;18.75;11.43;;;;;;;;;;5154442;27;20543;-59
2023/03/09 01:53:32;;;;;;;19.63;10.85;;;;;;;;;;5161849;27;20517;-59
2023/03/09 01:56:00;;;;;;;20.83;11.63;;;;;;;;;;5155596;27;20136;-59
2023/03/09 01:58:28;;;;;;;18.83;11.25;;;;;;;;;;5146380;27;20047;-59
2023/03/09 02:00:55;;;;;;;20.30;11.05;;;;;;;;;;5155288;27;20047;-59
2023/03/09 02:03:23;;;;;;;19.77;11.23;;;;;;;;;;5145194;27;20062;-60
2023/03/09 02:05:52;;;;;;;19.40;11.05;;;;;;;;;;5143407;27;20055;-58
2023/03/09 02:08:21;;;;;;;17.95;11.35;;;;;;;;;;5153043;27;20051;-59
2023/03/09 02:10:57;;;;;;;21.67;10.85;;;;;;;;;;5154749;27;20047;-56
2023/03/09 02:13:44;;;;;;;20.27;11.23;;;;;;;;;;5156688;27;20055;-59
2023/03/09 02:16:10;;;;;;;21.55;13.95;;;;;;;;;;5148996;27;20059;-59
2023/03/09 02:18:38;;;;;;;23.65;11.10;;;;;;;;;;5164271;27;20051;-60
2023/03/09 02:21:15;;;;;;;19.38;11.52;;;;;;;;;;5146329;27;20043;-60
2023/03/09 02:23:47;;;;;;;20.63;12.30;;;;;;;;;;5154528;27;20066;-60
2023/03/09 02:26:13;;;;;;;20.50;12.23;;;;;;;;;;5157395;27;20042;-58
2023/03/09 02:28:40;;;;;;;20.90;11.55;;;;;;;;;;5159046;27;20108;-57
2023/03/09 02:31:07;;;;;;;21.17;11.82;;;;;;;;;;5155815;27;20051;-59
2023/03/09 02:33:34;;;;;;;19.40;11.32;;;;;;;;;;5153657;27;20094;-59
2023/03/09 02:36:00;;;;;;;18.13;10.20;;;;;;;;;;5155297;27;20043;-59
2023/03/09 02:38:27;;;;;;;22.58;11.13;;;;;;;;;;5158435;27;20066;-59
2023/03/09 02:40:55;;;;;;;20.73;11.88;;;;;;;;;;5143263;27;20500;-58
2023/03/09 02:43:24;;;;;;;20.75;12.57;;;;;;;;;;5161453;27;20051;-60
2023/03/09 02:45:51;;;;;;;18.88;10.73;;;;;;;;;;5148787;27;20497;-60
2023/03/09 02:48:17;;;;;;;19.90;12.25;;;;;;;;;;5160186;27;20054;-59
2023/03/09 02:50:44;;;;;;;19.98;11.80;;;;;;;;;;5149270;27;20051;-60
2023/03/09 02:53:10;;;;;;;22.15;12.85;;;;;;;;;;5157106;27;20059;-60
2023/03/09 02:55:37;;;;;;;21.77;13.30;;;;;;;;;;5161372;27;20505;-59
2023/03/09 02:58:03;;;;;;;19.42;11.55;;;;;;;;;;5159054;27;20076;-58
2023/03/09 03:00:30;;;;;;;17.85;10.88;;;;;;;;;;5159016;27;20050;-59
2023/03/09 03:02:56;;;;;;;22.15;12.40;;;;;;;;;;5148106;27;20081;-59
2023/03/09 03:05:22;;;;;;;19.95;11.32;;;;;;;;;;5147913;27;20059;-60
2023/03/09 03:07:49;;;;;;;19.63;11.05;;;;;;;;;;5157883;27;20079;-60
2023/03/09 03:10:15;;;;;;;18.17;10.73;;;;;;;;;;5159519;27;20050;-60
2023/03/09 03:12:41;;;;;;;17.05;11.07;;;;;;;;;;5163106;27;20051;-58
2023/03/09 03:15:08;;;;;;;20.38;10.70;;;;;;;;;;5151819;27;20431;-59
2023/03/09 03:17:35;;;;;;;15.77;9.85;;;;;;;;;;5156672;27;20057;-60
2023/03/09 03:20:02;;;;;;;16.40;8.77;;;;;;;;;;5165673;27;20089;-58
2023/03/09 03:22:29;;;;;;;15.95;9.60;;;;;;;;;;5157387;27;20057;-58
2023/03/09 03:24:55;;;;;;;16.67;9.85;;;;;;;;;;5147736;27;20546;-59
2023/03/09 03:27:22;;;;;;;16.60;10.07;;;;;;;;;;5152725;27;20346;-60
2023/03/09 03:29:50;;;;;;;18.33;9.73;;;;;;;;;;5151233;27;20051;-60
2023/03/09 03:32:17;;;;;;;18.88;10.23;;;;;;;;;;5161367;27;20154;-58
2023/03/09 03:34:43;;;;;;;15.88;9.30;;;;;;;;;;5154314;27;20495;-59
2023/03/09 03:37:10;;;;;;;16.67;10.20;;;;;;;;;;5163844;27;20514;-60
2023/03/09 03:39:37;;;;;;;18.60;10.27;;;;;;;;;;5157174;27;20047;-60
2023/03/09 03:42:04;;;;;;;17.17;8.80;;;;;;;;;;5153828;27;20058;-60
2023/03/09 03:44:30;;;;;;;16.63;9.35;;;;;;;;;;5163465;27;20720;-60
2023/03/09 03:46:57;;;;;;;16.48;10.15;;;;;;;;;;5149540;27;20522;-60
2023/03/09 03:49:23;;;;;;;20.83;9.18;;;;;;;;;;5151130;27;20591;-58
2023/03/09 03:51:50;;;;;;;16.67;10.52;;;;;;;;;;5157644;27;20130;-60
2023/03/09 03:54:16;;;;;;;19.02;10.75;;;;;;;;;;5164727;27;20093;-60
2023/03/09 03:56:42;;;;;;;16.75;8.75;;;;;;;;;;5154207;27;20458;-60
2023/03/09 03:59:10;;;;;;;20.58;10.18;;;;;;;;;;5153702;27;20058;-60
2023/03/09 04:01:36;;;;;;;18.13;9.90;;;;;;;;;;5147877;27;20126;-60
2023/03/09 04:04:02;;;;;;;18.55;9.77;;;;;;;;;;5156824;27;20099;-59
2023/03/09 04:06:30;;;;;;;16.75;9.27;;;;;;;;;;5149002;27;20078;-59
2023/03/09 04:08:57;;;;;;;18.75;10.75;;;;;;;;;;5146842;27;20055;-60
2023/03/09 04:11:23;;;;;;;17.75;9.57;;;;;;;;;;5161544;27;20065;-59
2023/03/09 04:13:50;;;;;;;21.17;10.85;;;;;;;;;;5156975;27;20445;-58
2023/03/09 04:16:16;;;;;;;16.23;9.18;;;;;;;;;;5157170;27;20054;-59
2023/03/09 04:18:44;;;;;;;21.77;10.88;;;;;;;;;;5154528;27;20066;-59
2023/03/09 04:21:10;;;;;;;18.20;10.70;;;;;;;;;;5159944;27;20051;-59
2023/03/09 04:23:36;;;;;;;18.48;10.05;;;;;;;;;;5157356;27;20052;-60
2023/03/09 04:26:04;;;;;;;17.98;10.38;;;;;;;;;;5162518;27;20060;-60
2023/03/09 04:28:30;;;;;;;19.77;11.02;;;;;;;;;;5154296;27;20051;-59
2023/03/09 04:30:57;;;;;;;21.35;11.18;;;;;;;;;;5160228;27;20047;-60
2023/03/09 04:33:23;;;;;;;20.90;11.50;;;;;;;;;;5154089;27;20082;-61
2023/03/09 04:35:50;;;;;;;22.23;11.95;;;;;;;;;;5163149;27;20129;-59
2023/03/09 04:38:16;;;;;;;19.73;11.93;;;;;;;;;;5155031;27;20046;-60
2023/03/09 04:40:42;;;;;;;18.70;10.50;;;;;;;;;;5153875;27;20134;-60
2023/03/09 04:43:09;;;;;;;20.35;11.77;;;;;;;;;;5161454;27;20043;-60
2023/03/09 04:45:35;;;;;;;19.40;11.55;;;;;;;;;;5160452;27;20051;-60
2023/03/09 04:48:03;;;;;;;20.67;11.52;;;;;;;;;;5132808;27;20130;-60
2023/03/09 04:50:29;;;;;;;20.83;11.45;;;;;;;;;;5151924;27;20047;-60
2023/03/09 04:52:55;;;;;;;20.00;11.73;;;;;;;;;;5152274;27;20165;-59
2023/03/09 04:55:22;;;;;;;19.38;10.60;;;;;;;;;;5132623;27;20331;-59
2023/03/09 04:57:48;;;;;;;19.55;11.32;;;;;;;;;;5146381;27;20061;-61
2023/03/09 05:00:15;;;;;;;19.45;11.50;;;;;;;;;;5156753;27;20061;-61
2023/03/09 05:02:41;;;;;;;20.55;10.98;;;;;;;;;;5160893;27;20074;-60
2023/03/09 05:05:08;;;;;;;20.35;11.55;;;;;;;;;;5154642;27;20051;-60
2023/03/09 05:07:35;;;;;;;19.80;11.48;;;;;;;;;;5159552;27;20051;-60
2023/03/09 05:10:02;;;;;;;20.85;12.00;;;;;;;;;;5162726;27;20542;-61
2023/03/09 05:12:31;;;;;;;21.85;12.18;;;;;;;;;;5151023;27;20054;-59
2023/03/09 05:14:58;;;;;;;19.13;10.95;;;;;;;;;;5147392;27;20043;-60
2023/03/09 05:17:24;;;;;;;21.63;11.82;;;;;;;;;;5150576;27;20130;-60
2023/03/09 05:19:50;;;;;;;23.52;12.93;;;;;;;;;;5162292;27;20520;-60
2023/03/09 05:22:17;;;;;;;21.73;12.07;;;;;;;;;;5155236;27;20468;-60
2023/03/09 05:24:43;;;;;;;20.92;11.57;;;;;;;;;;5161966;27;20563;-60
2023/03/09 05:27:10;;;;;;;22.00;12.48;;;;;;;;;;5155816;27;20051;-60
2023/03/09 05:29:36;;;;;;;24.05;13.27;;;;;;;;;;5156221;27;20051;-60
2023/03/09 05:32:02;;;;;;;21.90;12.90;;;;;;;;;;5153735;27;20062;-60
2023/03/09 05:34:29;;;;;;;22.67;12.70;;;;;;;;;;5158358;27;20368;-60
2023/03/09 05:36:55;;;;;;;24.55;12.45;;;;;;;;;;5154832;27;20083;-60
2023/03/09 05:39:22;;;;;;;25.13;12.27;;;;;;;;;;5156567;27;20602;-59
2023/03/09 05:41:48;;;;;;;25.05;13.60;;;;;;;;;;5162189;27;20578;-60
2023/03/09 05:44:16;;;;;;;24.98;13.13;;;;;;;;;;5146314;27;20086;-59
2023/03/09 05:46:42;;;;;;;21.88;12.32;;;;;;;;;;5155307;27;20050;-60
2023/03/09 05:49:09;;;;;;;26.92;14.35;;;;;;;;;;5147825;27;20146;-60
2023/03/09 05:51:35;;;;;;;24.38;12.43;;;;;;;;;;5145881;27;20527;-60
2023/03/09 05:54:02;;;;;;;22.92;13.10;;;;;;;;;;5158644;27;20135;-60
2023/03/09 05:56:28;;;;;;;24.58;13.35;;;;;;;;;;5156463;27;20047;-59
2023/03/09 05:58:56;;;;;;;26.70;13.95;;;;;;;;;;5136361;27;20500;-60
2023/03/09 06:01:24;;;;;;;26.90;14.10;;;;;;;;;;5152597;27;20054;-60
2023/03/09 06:03:50;;;;;;;24.70;13.10;;;;;;;;;;5161858;27;20046;-60
2023/03/09 06:06:17;;;;;;;24.70;13.32;;;;;;;;;;5153456;27;20051;-60
2023/03/09 06:08:43;;;;;;;25.88;13.60;;;;;;;;;;5156440;27;20591;-60
2023/03/09 06:11:10;;;;;;;24.23;13.77;;;;;;;;;;5170923;27;20103;-60
2023/03/09 06:13:37;;;;;;;25.90;13.95;;;;;;;;;;5155215;27;20058;-60
2023/03/09 06:16:04;;;;;;;26.05;14.20;;;;;;;;;;5162798;27;20050;-60
2023/03/09 06:18:31;;;;;;;25.13;13.60;;;;;;;;;;5157356;27;20042;-61
2023/03/09 06:21:02;;;;;;;23.92;12.82;;;;;;;;;;5142476;27;20047;-58
2023/03/09 06:23:28;;;;;;;25.90;13.98;;;;;;;;;;5133826;27;20555;-60
2023/03/09 06:25:55;;;;;;;20.88;12.48;;;;;;;;;;5150173;27;20583;-59
2023/03/09 06:28:21;;;;;;;24.80;13.45;;;;;;;;;;5148006;27;20626;-60
2023/03/09 06:30:48;;;;;;;26.35;13.20;;;;;;;;;;5144013;27;20485;-59
2023/03/09 06:33:14;;;;;;;25.10;13.85;;;;;;;;;;5146050;27;20516;-60
2023/03/09 06:35:41;;;;;;;23.45;12.88;;;;;;;;;;5151105;27;20614;-61
2023/03/09 06:38:07;;;;;;;22.83;13.02;;;;;;;;;;5165594;27;20069;-60
2023/03/09 06:40:34;;;;;;;26.02;13.02;;;;;;;;;;5155722;27;20142;-59
2023/03/09 06:43:00;;;;;;;26.30;13.98;;;;;;;;;;5145749;27;20160;-60
2023/03/09 06:45:27;;;;;;;23.00;13.50;;;;;;;;;;5151472;27;20047;-60
2023/03/09 06:47:54;;;;;;;24.02;13.30;;;;;;;;;;5164245;27;20059;-61
2023/03/09 06:50:21;;;;;;;29.15;14.60;;;;;;;;;;5156646;27;20046;-60
2023/03/09 06:52:47;;;;;;;23.55;13.05;;;;;;;;;;5150646;27;20062;-59
2023/03/09 06:55:14;;;;;;;25.23;12.90;;;;;;;;;;5161456;27;20128;-60
2023/03/09 06:57:42;;;;;;;25.13;13.93;;;;;;;;;;5146046;27;20055;-60
2023/03/09 07:00:11;;;;;;;22.40;12.90;;;;;;;;;;5152319;27;20160;-59
2023/03/09 07:02:38;;;;;;;26.40;13.65;;;;;;;;;;5158813;27;20131;-60
2023/03/09 07:05:08;;;;;;;26.30;13.63;;;;;;;;;;5156385;27;20055;-60
2023/03/09 07:07:34;;;;;;;28.00;14.23;;;;;;;;;;5160640;27;20051;-62
2023/03/09 07:10:00;;;;;;;27.10;14.70;;;;;;;;;;5156769;27;20055;-61
2023/03/09 07:12:27;;;;;;;24.55;13.43;;;;;;;;;;5160047;27;20051;-59
2023/03/09 07:14:53;;;;;;;25.23;14.95;;;;;;;;;;5160340;27;20538;-61
2023/03/09 07:17:20;;;;;;;26.95;13.65;;;;;;;;;;5149218;27;20432;-59
2023/03/09 07:19:46;;;;;;;23.95;13.73;;;;;;;;;;5145144;27;20063;-59
2023/03/09 07:22:13;;;;;;;22.30;12.73;;;;;;;;;;5153868;27;20078;-60
2023/03/09 07:24:39;;;;;;;23.50;13.95;;;;;;;;;;5160073;27;20504;-59
2023/03/09 07:27:07;;;;;;;23.15;13.38;;;;;;;;;;5145895;27;20180;-59
2023/03/09 07:29:34;;;;;;;22.60;13.05;;;;;;;;;;5148572;27;20054;-59
2023/03/09 07:32:02;;;;;;;23.75;12.95;;;;;;;;;;5156422;27;20047;-59
2023/03/09 07:34:29;;;;;;;23.70;13.82;;;;;;;;;;5138113;27;20138;-59
2023/03/09 07:36:55;;;;;;;29.38;13.93;;;;;;;;;;5155718;27;20412;-59
2023/03/09 07:39:21;;;;;;;28.65;15.80;;;;;;;;;;5155671;27;20074;-59
2023/03/09 07:41:48;;;;;;;29.42;14.73;;;;;;;;;;5153885;27;20043;-59
2023/03/09 07:44:14;;;;;;;26.98;13.90;;;;;;;;;;5157473;27;20480;-59
2023/03/09 07:46:40;;;;;;;25.83;14.20;;;;;;;;;;5155339;27;20058;-60
2023/03/09 07:49:07;;;;;;;25.90;14.40;;;;;;;;;;5154207;27;20062;-59
2023/03/09 07:51:35;;;;;;;23.13;13.32;;;;;;;;;;5144822;27;20501;-60
2023/03/09 07:54:03;;;;;;;27.52;14.23;;;;;;;;;;5145098;27;20059;-61
2023/03/09 07:56:30;;;;;;;27.42;14.77;;;;;;;;;;5150533;27;20062;-61
2023/03/09 07:58:56;;;;;;;25.42;13.50;;;;;;;;;;5164760;27;20050;-61
2023/03/09 08:01:23;;;;;;;22.63;13.18;;;;;;;;;;5149705;27;20066;-60
2023/03/09 08:03:50;;;;;;;25.33;13.70;;;;;;;;;;5165443;27;20058;-60
2023/03/09 08:06:16;;;;;;;24.30;12.80;;;;;;;;;;5154529;27;20505;-59
2023/03/09 08:08:43;;;;;;;25.10;14.23;;;;;;;;;;5132347;27;20116;-60
2023/03/09 08:11:09;;;;;;;23.95;13.18;;;;;;;;;;5164387;27;20078;-58
2023/03/09 08:13:36;;;;;;;23.45;14.15;;;;;;;;;;5162508;27;20490;-59
2023/03/09 08:16:05;;;;;;;26.88;13.85;;;;;;;;;;5164153;27;20050;-60
2023/03/09 08:18:32;;;;;;;24.38;13.40;;;;;;;;;;5148633;27;20061;-60
2023/03/09 08:21:06;;;;;;;25.30;14.57;;;;;;;;;;5148145;27;20055;-60
2023/03/09 08:23:34;;;;;;;23.88;14.23;;;;;;;;;;5164048;27;20488;-60
2023/03/09 08:26:01;;;;;;;26.77;14.77;;;;;;;;;;5165516;27;20473;-60
2023/03/09 08:28:27;;;;;;;25.23;13.55;;;;;;;;;;5154019;27;20132;-60
2023/03/09 08:30:53;;;;;;;24.33;14.50;;;;;;;;;;5150196;27;20055;-60
2023/03/09 08:33:20;;;;;;;26.02;14.95;;;;;;;;;;5157160;27;20046;-59
2023/03/09 08:35:46;;;;;;;31.77;14.98;;;;;;;;;;5164134;27;20530;-60
2023/03/09 08:38:12;;;;;;;24.23;14.13;;;;;;;;;;5154043;27;20071;-60
2023/03/09 08:40:39;;;;;;;25.90;13.57;;;;;;;;;;5146179;27;20138;-60
2023/03/09 08:43:05;;;;;;;26.33;14.63;;;;;;;;;;5157147;27;20102;-60
2023/03/09 08:45:32;;;;;;;29.90;15.98;;;;;;;;;;5162509;27;20055;-61
2023/03/09 08:47:58;;;;;;;27.83;15.55;;;;;;;;;;5156958;27;20523;-60
2023/03/09 08:50:25;;;;;;;26.90;14.73;;;;;;;;;;5157362;27;21688;-61
2023/03/09 08:52:51;;;;;;;29.65;15.43;;;;;;;;;;5150262;27;20500;-60
2023/03/09 08:55:18;;;;;;;25.70;14.85;;;;;;;;;;5160969;27;20051;-60
2023/03/09 08:57:44;;;;;;;24.52;13.70;;;;;;;;;;5161168;27;20098;-59
2023/03/09 09:00:11;;;;;;;24.60;13.93;;;;;;;;;;5150972;27;20936;-60
2023/03/09 09:02:38;;;;;;;25.48;14.25;;;;;;;;;;5140733;27;20050;-60
2023/03/09 09:05:05;;;;;;;26.40;14.63;;;;;;;;;;5167016;27;20415;-59
2023/03/09 09:07:31;;;;;;;26.85;14.90;;;;;;;;;;5157599;27;20047;-60
2023/03/09 09:09:59;;;;;;;25.63;14.25;;;;;;;;;;5161985;27;20053;-60
2023/03/09 09:12:32;;;;;;;26.08;15.82;;;;;;;;;;5147012;27;20051;-60
2023/03/09 09:14:58;;;;;;;26.65;14.32;;;;;;;;;;5145713;27;20095;-60
2023/03/09 09:17:25;;;;;;;24.15;13.75;;;;;;;;;;5158311;27;20050;-60
2023/03/09 09:19:51;;;;;;;23.83;14.60;;;;;;;;;;5158255;27;20047;-59
2023/03/09 09:22:17;;;;;;;25.98;14.82;;;;;;;;;;5149835;27;20579;-61
2023/03/09 09:24:44;;;;;;;27.63;15.45;;;;;;;;;;5152440;27;20046;-58
2023/03/09 09:27:10;;;;;;;28.75;15.05;;;;;;;;;;5145782;27;20051;-60
2023/03/09 09:29:37;;;;;;;25.65;14.60;;;;;;;;;;5143530;27;20494;-60
2023/03/09 09:32:04;;;;;;;27.10;14.48;;;;;;;;;;5146775;27;20139;-61
2023/03/09 09:34:32;;;;;;;26.27;14.50;;;;;;;;;;5153025;27;20133;-61
2023/03/09 09:37:00;;;;;;;26.75;14.48;;;;;;;;;;5151471;27;20047;-61
2023/03/09 09:39:32;;;;;;;27.83;14.68;;;;;;;;;;5160161;27;20124;-61
2023/03/09 09:42:01;;;;;;;31.05;15.95;;;;;;;;;;5147557;27;20062;-61
2023/03/09 09:44:32;;;;;;;31.02;15.68;;;;;;;;;;5156462;27;20637;-61
2023/03/09 09:47:01;;;;;;;26.17;14.20;;;;;;;;;;5159794;27;20058;-62
2023/03/09 09:49:28;;;;;;;26.13;14.68;;;;;;;;;;5150228;27;20293;-60
2023/03/09 09:51:58;;;;;;;27.88;14.93;;;;;;;;;;5151793;27;20165;-61
2023/03/09 09:54:41;;;;;;;27.52;15.40;;;;;;;;;;5154069;27;20163;-61
2023/03/09 09:57:15;;;;;;;27.67;15.23;;;;;;;;;;5159633;27;20149;-61
2023/03/09 09:59:46;;;;;;;28.00;15.10;;;;;;;;;;5158969;27;20496;-60
2023/03/09 10:02:13;;;;;;;26.73;15.40;;;;;;;;;;5147042;27;20797;-61
2023/03/09 10:04:48;;;;;;;31.40;15.60;;;;;;;;;;5155830;27;20054;-60
2023/03/09 10:07:16;;;;;;;28.08;15.55;;;;;;;;;;5153151;27;20150;-61
2023/03/09 10:09:48;;;;;;;25.75;14.55;;;;;;;;;;5147332;27;20046;-61
2023/03/09 10:12:18;;;;;;;26.77;15.23;;;;;;;;;;5162971;27;20553;-60
2023/03/09 10:15:00;;;;;;;28.38;14.73;;;;;;;;;;5153886;27;20039;-61
2023/03/09 10:17:30;;;;;;;27.20;15.57;;;;;;;;;;5138527;27;20046;-61
2023/03/09 10:20:09;;;;;;;27.35;14.68;;;;;;;;;;5159861;27;20051;-61
2023/03/09 10:22:37;;;;;;;27.75;14.98;;;;;;;;;;5147835;27;20489;-61
2023/03/09 10:25:09;;;;;;;25.60;15.32;;;;;;;;;;5163636;27;20076;-61
2023/03/09 10:27:47;;;;;;;26.73;15.32;;;;;;;;;;5157796;27;20059;-60
2023/03/09 10:30:39;;;;;;;28.13;15.68;;;;;;;;;;5156980;27;20540;-61
2023/03/09 10:33:17;;;;;;;28.02;14.45;;;;;;;;;;5117616;27;20059;-62
2023/03/09 10:35:54;;;;;;;24.55;14.60;;;;;;;;;;5148125;27;20055;-61
2023/03/09 10:38:24;;;;;;;24.95;14.00;;;;;;;;;;5134025;27;20069;-61
2023/03/09 10:40:54;;;;;;;30.58;16.55;;;;;;;;;;5153409;27;20039;-61
2023/03/09 10:43:39;;;;;;;30.40;16.40;;;;;;;;;;5161055;27;20573;-62
2023/03/09 10:46:14;;;;;;;30.95;15.65;;;;;;;;;;5158828;27;20126;-61
2023/03/09 10:48:41;;;;;;;;;;;;;;;;;;5160745;27;20464;-58
2023/03/09 10:51:08;;;;;;;;;;;;;;;;;;5159376;27;43947;-60
2023/03/09 10:53:37;;;;;;;25.63;14.57;;;;;;;;;;5161271;27;45176;-62
2023/03/09 10:56:05;;;;;;;28.90;15.43;;;;;;;;;;5146800;27;20054;-60
2023/03/09 10:58:33;;;;;;;28.20;15.43;;;;;;;;;;5155101;27;20137;-61
2023/03/09 11:01:02;;;;;;;28.70;16.98;;;;;;;;;;5154544;27;20054;-61
2023/03/09 11:03:39;;;;;;;28.30;14.80;;;;;;;;;;5158201;27;20043;-62
2023/03/09 11:06:08;;;;;;;29.45;15.50;;;;;;;;;;5152929;27;20051;-61
2023/03/09 11:08:34;;;;;;;27.92;15.55;;;;;;;;;;5151734;27;20054;-61
2023/03/09 11:11:23;;;;;;;31.92;15.52;;;;;;;;;;5146039;27;20074;-61
2023/03/09 11:13:49;;;;;;;29.23;16.08;;;;;;;;;;5150396;27;20171;-61
2023/03/09 11:16:28;;;;;;;30.27;15.90;;;;;;;;;;5157158;27;20043;-61
2023/03/09 11:19:10;;;;;;;28.63;15.77;;;;;;;;;;5158658;27;20054;-61
2023/03/09 11:21:37;;;;;;;28.77;15.23;;;;;;;;;;5148321;27;20589;-61
2023/03/09 11:24:06;;;;;;;28.58;15.05;;;;;;;;;;5153946;27;20074;-59
2023/03/09 11:26:55;;;;;;;28.80;16.00;;;;;;;;;;5163936;27;20051;-61
2023/03/09 11:29:34;;;;;;;28.23;15.55;;;;;;;;;;5160737;27;20057;-61
2023/03/09 11:32:01;;;;;;;27.63;14.75;;;;;;;;;;5145035;27;20055;-60
2023/03/09 11:34:34;;;;;;;31.63;16.88;;;;;;;;;;5163565;27;20047;-61
2023/03/09 11:37:04;;;;;;;28.30;14.57;;;;;;;;;;5158744;27;20138;-63
2023/03/09 11:39:35;;;;;;;26.67;14.52;;;;;;;;;;5146467;27;20508;-61
2023/03/09 11:42:04;;;;;;;28.83;15.65;;;;;;;;;;5150029;27;20059;-61
2023/03/09 11:44:35;;;;;;;31.35;16.10;;;;;;;;;;5147330;27;20504;-61
2023/03/09 11:47:12;;;;;;;28.58;15.15;;;;;;;;;;5149505;27;20816;-60
2023/03/09 11:49:40;;;;;;;28.00;15.27;;;;;;;;;;5155069;27;20103;-60
2023/03/09 11:52:07;;;;;;;27.58;14.90;;;;;;;;;;5130088;27;20053;-61
2023/03/09 11:54:35;;;;;;;25.52;13.18;;;;;;;;;;5148514;27;20039;-61
2023/03/09 11:57:06;;;;;;;26.25;14.55;;;;;;;;;;5147565;27;20079;-62
2023/03/09 11:59:50;;;;;;;30.73;15.88;;;;;;;;;;5146318;27;20070;-60
2023/03/09 12:02:16;;;;;;;28.83;14.95;;;;;;;;;;5155540;27;20046;-61
2023/03/09 12:04:47;;;;;;;31.17;16.52;;;;;;;;;;5124757;27;20051;-61
2023/03/09 12:07:23;;;;;;;27.42;15.13;;;;;;;;;;5148509;27;20150;-61
2023/03/09 12:10:03;;;;;;;32.40;16.25;;;;;;;;;;5148423;27;20047;-61
2023/03/09 12:12:43;;;;;;;31.67;16.83;;;;;;;;;;5151580;27;20057;-61
2023/03/09 12:15:12;;;;;;;28.83;16.00;;;;;;;;;;5150436;27;20591;-61
2023/03/09 12:17:45;;;;;;;28.05;15.05;;;;;;;;;;5150708;27;20244;-62
2023/03/09 12:20:20;;;;;;;25.95;14.18;;;;;;;;;;5144652;27;20051;-61
2023/03/09 12:22:47;;;;;;;26.08;14.65;;;;;;;;;;5149174;27;20127;-61
2023/03/09 12:25:18;;;;;;;29.17;16.15;;;;;;;;;;5154423;27;20053;-61
2023/03/09 12:27:56;;;;;;;27.65;15.88;;;;;;;;;;5158973;27;20042;-61
2023/03/09 12:30:30;;;;;;;24.95;14.60;;;;;;;;;;5153479;27;20218;-61
2023/03/09 12:33:00;;;;;;;29.13;14.93;;;;;;;;;;5152942;27;20148;-60
2023/03/09 12:35:27;;;;;;;27.30;15.63;;;;;;;;;;5157917;27;20043;-60
2023/03/09 12:38:00;;;;;;;29.15;15.25;;;;;;;;;;5148217;27;20569;-60
2023/03/09 12:40:26;;;;;;;29.58;15.95;;;;;;;;;;5143729;27;20725;-61
2023/03/09 12:42:54;;;;;;;25.67;15.27;;;;;;;;;;5157569;27;20055;-60
2023/03/09 12:45:20;;;;;;;29.38;16.00;;;;;;;;;;5142547;27;20054;-60
2023/03/09 12:47:46;;;;;;;27.10;15.77;;;;;;;;;;5151041;27;20055;-60
2023/03/09 12:50:22;;;;;;;34.28;16.35;;;;;;;;;;5149664;27;20483;-61
2023/03/09 12:52:48;;;;;;;28.27;15.20;;;;;;;;;;5151294;27;20055;-60
2023/03/09 12:55:22;;;;;;;28.48;14.50;;;;;;;;;;5153181;27;20057;-60
2023/03/09 12:57:49;;;;;;;28.20;14.98;;;;;;;;;;5151816;27;20063;-61
2023/03/09 13:00:29;;;;;;;29.00;15.80;;;;;;;;;;5150472;27;20046;-60
2023/03/09 13:02:58;;;;;;;26.70;13.65;;;;;;;;;;5158455;27;20528;-61
2023/03/09 13:05:30;;;;;;;24.58;13.30;;;;;;;;;;5161366;27;20134;-62
2023/03/09 13:07:58;;;;;;;26.95;14.77;;;;;;;;;;5145730;27;20143;-60
2023/03/09 13:10:29;;;;;;;26.63;15.00;;;;;;;;;;5147188;27;20581;-61
2023/03/09 13:13:16;;;;;;;27.13;14.27;;;;;;;;;;5157372;27;20047;-60
2023/03/09 13:15:43;;;;;;;25.02;13.43;;;;;;;;;;5159673;27;20086;-60
2023/03/09 13:18:18;;;;;;;26.30;14.35;;;;;;;;;;5158889;27;20107;-60
2023/03/09 13:20:45;;;;;;;25.40;13.60;;;;;;;;;;5152364;27;20058;-60
2023/03/09 13:23:13;;;;;;;27.35;13.82;;;;;;;;;;5157475;27;20054;-61
2023/03/09 13:25:42;;;;;;;29.58;14.80;;;;;;;;;;5147652;27;20082;-60
2023/03/09 13:28:14;;;;;;;28.52;14.93;;;;;;;;;;5149285;27;20051;-60
2023/03/09 13:30:44;;;;;;;22.98;13.32;;;;;;;;;;5152238;27;20141;-60
2023/03/09 13:33:22;;;;;;;25.90;13.90;;;;;;;;;;5154976;27;20050;-61
2023/03/09 13:35:51;;;;;;;24.50;12.98;;;;;;;;;;5164406;27;20046;-60
2023/03/09 13:38:20;;;;;;;22.58;12.70;;;;;;;;;;5149963;27;20139;-61
2023/03/09 13:40:54;;;;;;;24.73;12.90;;;;;;;;;;5142725;27;20456;-61
2023/03/09 13:43:23;;;;;;;23.88;13.75;;;;;;;;;;5148244;27;20087;-61
2023/03/09 13:45:57;;;;;;;28.25;13.80;;;;;;;;;;5157429;27;20049;-61
2023/03/09 13:48:24;;;;;;;26.95;14.52;;;;;;;;;;5148935;27;20134;-62
2023/03/09 13:50:50;;;;;;;25.25;13.35;;;;;;;;;;5156621;27;20050;-61
2023/03/09 13:53:17;;;;;;;25.83;13.68;;;;;;;;;;5148707;27;20104;-61
2023/03/09 13:55:53;;;;;;;26.33;14.20;;;;;;;;;;5143836;27;20047;-60
2023/03/09 13:58:24;;;;;;;25.05;14.38;;;;;;;;;;5143684;27;20094;-60
2023/03/09 14:00:51;;;;;;;24.48;13.00;;;;;;;;;;5148964;27;20107;-60
2023/03/09 14:03:17;;;;;;;24.85;13.07;;;;;;;;;;5157063;27;20425;-60
2023/03/09 14:05:52;;;;;;;23.65;13.38;;;;;;;;;;5145447;27;20581;-59
2023/03/09 14:08:49;;;;;;;26.48;13.02;;;;;;;;;;5154344;27;20078;-61
2023/03/09 14:11:19;;;;;;;28.52;12.85;;;;;;;;;;5156108;27;20047;-60
2023/03/09 14:13:51;;;;;;;23.55;12.57;;;;;;;;;;5146949;27;20349;-60
2023/03/09 14:16:18;;;;;;;21.95;12.77;;;;;;;;;;5152645;27;20469;-60
2023/03/09 14:18:51;;;;;;;23.13;13.02;;;;;;;;;;5145709;27;20398;-60
2023/03/09 14:21:19;;;;;;;23.23;12.90;;;;;;;;;;5143509;27;20501;-61
2023/03/09 14:23:46;;;;;;;26.13;12.95;;;;;;;;;;5146027;27;20500;-61
2023/03/09 14:26:21;;;;;;;24.15;13.13;;;;;;;;;;5150975;27;20047;-60